sensor_id;sensor_type;location;lat;lon;timestamp;pressure;altitude;pressure_sealevel;temperature;humidity
63665;BME280;49820;33.966;73.390;2023-01-10T03:38:08;79200.38;;;6.20;55.23
63665;BME280;49820;33.966;73.390;2023-01-10T03:40:59;79200.97;;;6.35;53.74
63665;BME280;49820;33.966;73.390;2023-01-10T03:47:26;79232.69;;;6.73;52.85
63665;BME280;49820;33.966;73.390;2023-01-10T03:50:03;79206.13;;;6.77;51.37
63665;BME280;49820;33.966;73.390;2023-01-10T03:52:37;79236.28;;;7.53;54.23
63665;BME280;49820;33.966;73.390;2023-01-10T03:55:14;79242.06;;;7.80;50.17
63665;BME280;49820;33.966;73.390;2023-01-10T03:57:44;79229.53;;;7.64;46.46
63665;BME280;49820;33.966;73.390;2023-01-10T04:00:14;79242.16;;;7.64;47.83
63665;BME280;49820;33.966;73.390;2023-01-10T04:02:44;79199.88;;;7.30;48.90
63665;BME280;49820;33.966;73.390;2023-01-10T04:05:13;79207.84;;;7.27;49.68
63665;BME280;49820;33.966;73.390;2023-01-10T04:07:42;79200.63;;;7.14;51.99
63665;BME280;49820;33.966;73.390;2023-01-10T04:10:11;79203.34;;;7.00;52.66
63665;BME280;49820;33.966;73.390;2023-01-10T04:12:41;79187.50;;;6.87;53.90
63665;BME280;49820;33.966;73.390;2023-01-10T04:15:11;79176.22;;;6.87;54.75
63665;BME280;49820;33.966;73.390;2023-01-10T04:17:40;79195.47;;;6.87;54.56
63665;BME280;49820;33.966;73.390;2023-01-10T04:20:10;79196.84;;;6.78;56.21
63665;BME280;49820;33.966;73.390;2023-01-10T04:22:39;79199.41;;;6.90;56.50
63665;BME280;49820;33.966;73.390;2023-01-10T04:25:08;79187.41;;;7.04;55.78
63665;BME280;49820;33.966;73.390;2023-01-10T04:27:37;79183.91;;;7.32;53.86
63665;BME280;49820;33.966;73.390;2023-01-10T04:30:06;79195.63;;;7.67;53.06
63665;BME280;49820;33.966;73.390;2023-01-10T04:32:35;79205.22;;;8.13;51.81
63665;BME280;49820;33.966;73.390;2023-01-10T04:35:05;79219.50;;;8.55;50.33
63665;BME280;49820;33.966;73.390;2023-01-10T04:37:34;79221.78;;;8.91;50.08
63665;BME280;49820;33.966;73.390;2023-01-10T04:40:03;79220.22;;;9.10;48.17
63665;BME280;49820;33.966;73.390;2023-01-10T04:42:33;79208.13;;;9.17;48.67
63665;BME280;49820;33.966;73.390;2023-01-10T04:45:02;79199.66;;;9.03;49.71
63665;BME280;49820;33.966;73.390;2023-01-10T04:47:31;79200.97;;;9.06;49.88
63665;BME280;49820;33.966;73.390;2023-01-10T04:50:00;79215.41;;;9.23;48.88
63665;BME280;49820;33.966;73.390;2023-01-10T04:52:29;79235.81;;;9.43;48.83
63665;BME280;49820;33.966;73.390;2023-01-10T04:54:58;79229.88;;;9.38;49.17
63665;BME280;49820;33.966;73.390;2023-01-10T04:57:27;79234.00;;;9.27;49.30
63665;BME280;49820;33.966;73.390;2023-01-10T04:59:56;79221.41;;;9.24;49.25
63665;BME280;49820;33.966;73.390;2023-01-10T05:02:25;79233.34;;;9.29;50.60
63665;BME280;49820;33.966;73.390;2023-01-10T05:04:54;79243.44;;;9.18;49.89
63665;BME280;49820;33.966;73.390;2023-01-10T05:07:22;79221.91;;;8.79;50.13
63665;BME280;49820;33.966;73.390;2023-01-10T05:09:51;79245.16;;;8.85;48.53
63665;BME280;49820;33.966;73.390;2023-01-10T05:12:21;79235.38;;;8.65;49.96
63665;BME280;49820;33.966;73.390;2023-01-10T05:14:49;79255.31;;;9.31;51.38
63665;BME280;49820;33.966;73.390;2023-01-10T05:17:18;79234.91;;;9.63;47.35
63665;BME280;49820;33.966;73.390;2023-01-10T05:19:47;79239.97;;;9.83;47.49
63665;BME280;49820;33.966;73.390;2023-01-10T05:22:16;79218.31;;;10.05;45.83
63665;BME280;49820;33.966;73.390;2023-01-10T05:24:45;79223.44;;;10.62;44.92
63665;BME280;49820;33.966;73.390;2023-01-10T05:27:14;79239.38;;;11.44;43.61
63665;BME280;49820;33.966;73.390;2023-01-10T05:29:43;79247.63;;;11.34;42.64
63665;BME280;49820;33.966;73.390;2023-01-10T05:32:12;79260.91;;;11.73;42.22
63665;BME280;49820;33.966;73.390;2023-01-10T05:34:42;79241.19;;;12.24;41.68
63665;BME280;49820;33.966;73.390;2023-01-10T05:37:11;79227.91;;;12.18;42.62
63665;BME280;49820;33.966;73.390;2023-01-10T05:39:40;79234.69;;;11.82;40.63
63665;BME280;49820;33.966;73.390;2023-01-10T05:42:11;79250.91;;;12.40;41.07
63665;BME280;49820;33.966;73.390;2023-01-10T05:44:40;79248.66;;;12.79;39.77
63665;BME280;49820;33.966;73.390;2023-01-10T05:47:09;79254.97;;;12.68;40.94
63665;BME280;49820;33.966;73.390;2023-01-10T05:49:38;79250.22;;;12.70;40.21
63665;BME280;49820;33.966;73.390;2023-01-10T05:52:07;79230.00;;;12.44;40.59
63665;BME280;49820;33.966;73.390;2023-01-10T05:54:35;79253.22;;;12.56;40.93
63665;BME280;49820;33.966;73.390;2023-01-10T05:57:05;79243.38;;;12.75;40.69
63665;BME280;49820;33.966;73.390;2023-01-10T05:59:33;79237.34;;;12.46;38.38
63665;BME280;49820;33.966;73.390;2023-01-10T06:02:02;79242.69;;;12.48;40.40
63665;BME280;49820;33.966;73.390;2023-01-10T06:04:31;79226.84;;;12.36;39.71
63665;BME280;49820;33.966;73.390;2023-01-10T06:07:00;79236.50;;;12.53;42.01
63665;BME280;49820;33.966;73.390;2023-01-10T06:09:29;79253.81;;;13.18;38.96
63665;BME280;49820;33.966;73.390;2023-01-10T06:12:00;79267.69;;;12.67;35.57
63665;BME280;49820;33.966;73.390;2023-01-10T06:14:28;79261.59;;;11.74;36.64
63665;BME280;49820;33.966;73.390;2023-01-10T06:16:57;79273.63;;;11.75;37.37
63665;BME280;49820;33.966;73.390;2023-01-10T06:19:26;79256.25;;;11.37;37.92
63665;BME280;49820;33.966;73.390;2023-01-10T06:21:55;79239.63;;;11.32;38.27
63665;BME280;49820;33.966;73.390;2023-01-10T06:24:24;79247.97;;;11.14;39.32
63665;BME280;49820;33.966;73.390;2023-01-10T06:26:53;79245.88;;;11.19;38.74
63665;BME280;49820;33.966;73.390;2023-01-10T06:29:22;79245.38;;;11.47;38.06
63665;BME280;49820;33.966;73.390;2023-01-10T06:31:51;79197.03;;;11.20;39.35
63665;BME280;49820;33.966;73.390;2023-01-10T06:34:20;79215.50;;;11.34;39.07
63665;BME280;49820;33.966;73.390;2023-01-10T06:36:49;79225.81;;;11.90;37.51
63665;BME280;49820;33.966;73.390;2023-01-10T06:39:18;79205.19;;;12.46;37.59
63665;BME280;49820;33.966;73.390;2023-01-10T06:41:47;79190.53;;;11.46;37.41
63665;BME280;49820;33.966;73.390;2023-01-10T06:44:16;79196.53;;;12.14;36.10
63665;BME280;49820;33.966;73.390;2023-01-10T06:46:45;79208.47;;;12.79;36.43
63665;BME280;49820;33.966;73.390;2023-01-10T06:49:14;79220.59;;;13.32;37.21
63665;BME280;49820;33.966;73.390;2023-01-10T06:51:43;79204.28;;;13.67;36.70
63665;BME280;49820;33.966;73.390;2023-01-10T06:54:12;79221.25;;;14.34;38.42
63665;BME280;49820;33.966;73.390;2023-01-10T06:56:41;79181.53;;;14.36;36.59
63665;BME280;49820;33.966;73.390;2023-01-10T06:59:10;79194.16;;;15.52;35.95
63665;BME280;49820;33.966;73.390;2023-01-10T07:01:39;79192.53;;;15.82;36.15
63665;BME280;49820;33.966;73.390;2023-01-10T07:04:08;79181.72;;;16.02;36.05
63665;BME280;49820;33.966;73.390;2023-01-10T07:06:38;79192.91;;;16.30;38.47
63665;BME280;49820;33.966;73.390;2023-01-10T07:09:07;79205.88;;;16.25;36.14
63665;BME280;49820;33.966;73.390;2023-01-10T07:11:36;79196.78;;;15.95;31.24
63665;BME280;49820;33.966;73.390;2023-01-10T07:14:08;79218.19;;;15.99;31.76
63665;BME280;49820;33.966;73.390;2023-01-10T07:16:37;79202.16;;;15.33;32.37
63665;BME280;49820;33.966;73.390;2023-01-10T07:19:07;79197.06;;;14.34;33.83
63665;BME280;49820;33.966;73.390;2023-01-10T07:21:36;79202.63;;;15.19;37.21
63665;BME280;49820;33.966;73.390;2023-01-10T07:24:05;79167.22;;;15.10;35.65
63665;BME280;49820;33.966;73.390;2023-01-10T07:26:35;79204.56;;;14.77;33.21
63665;BME280;49820;33.966;73.390;2023-01-10T07:29:04;79178.47;;;14.50;34.11
63665;BME280;49820;33.966;73.390;2023-01-10T07:31:33;79187.72;;;15.84;36.24
63665;BME280;49820;33.966;73.390;2023-01-10T07:34:04;79173.03;;;14.75;32.71
63665;BME280;49820;33.966;73.390;2023-01-10T07:36:33;79166.28;;;14.54;33.14
63665;BME280;49820;33.966;73.390;2023-01-10T07:39:06;79183.38;;;15.10;33.84
63665;BME280;49820;33.966;73.390;2023-01-10T07:41:35;79181.72;;;14.99;32.81
63665;BME280;49820;33.966;73.390;2023-01-10T07:44:04;79182.22;;;14.60;33.87
63665;BME280;49820;33.966;73.390;2023-01-10T07:46:33;79133.94;;;13.38;34.66
63665;BME280;49820;33.966;73.390;2023-01-10T07:49:02;79160.09;;;13.87;37.50
63665;BME280;49820;33.966;73.390;2023-01-10T07:51:31;79137.06;;;12.92;37.27
63665;BME280;49820;33.966;73.390;2023-01-10T07:54:00;79174.00;;;13.19;37.58
63665;BME280;49820;33.966;73.390;2023-01-10T07:56:29;79139.78;;;13.19;37.98
63665;BME280;49820;33.966;73.390;2023-01-10T07:58:58;79142.19;;;14.27;38.25
63665;BME280;49820;33.966;73.390;2023-01-10T08:01:28;79149.72;;;15.32;40.78
63665;BME280;49820;33.966;73.390;2023-01-10T08:03:58;79147.88;;;15.26;39.27
63665;BME280;49820;33.966;73.390;2023-01-10T08:06:26;79140.50;;;15.25;37.59
63665;BME280;49820;33.966;73.390;2023-01-10T08:08:58;79143.47;;;15.17;35.44
63665;BME280;49820;33.966;73.390;2023-01-10T08:11:27;79143.13;;;14.85;39.28
63665;BME280;49820;33.966;73.390;2023-01-10T08:13:56;79132.69;;;14.30;39.56
63665;BME280;49820;33.966;73.390;2023-01-10T08:16:25;79085.97;;;14.64;40.42
63665;BME280;49820;33.966;73.390;2023-01-10T08:18:54;79118.25;;;14.19;41.08
63665;BME280;49820;33.966;73.390;2023-01-10T08:21:23;79099.28;;;13.77;41.56
63665;BME280;49820;33.966;73.390;2023-01-10T08:23:53;79128.44;;;13.66;41.32
63665;BME280;49820;33.966;73.390;2023-01-10T08:26:22;79105.19;;;13.34;41.77
63665;BME280;49820;33.966;73.390;2023-01-10T08:28:51;79114.81;;;13.50;42.68
63665;BME280;49820;33.966;73.390;2023-01-10T08:31:21;79086.19;;;13.65;42.19
63665;BME280;49820;33.966;73.390;2023-01-10T08:33:50;79072.72;;;13.67;42.59
63665;BME280;49820;33.966;73.390;2023-01-10T08:36:20;79091.84;;;13.55;42.22
63665;BME280;49820;33.966;73.390;2023-01-10T08:38:49;79057.63;;;12.81;44.35
63665;BME280;49820;33.966;73.390;2023-01-10T08:41:18;79036.63;;;13.14;44.33
63665;BME280;49820;33.966;73.390;2023-01-10T08:43:51;79076.19;;;14.32;43.76
63665;BME280;49820;33.966;73.390;2023-01-10T08:46:20;79061.50;;;13.60;42.67
63665;BME280;49820;33.966;73.390;2023-01-10T08:48:49;79089.09;;;13.82;42.60
63665;BME280;49820;33.966;73.390;2023-01-10T08:51:19;79064.41;;;13.52;43.33
63665;BME280;49820;33.966;73.390;2023-01-10T08:53:48;79075.66;;;13.34;44.31
63665;BME280;49820;33.966;73.390;2023-01-10T08:56:17;79077.84;;;12.76;44.41
63665;BME280;49820;33.966;73.390;2023-01-10T08:58:46;79018.78;;;12.53;46.19
63665;BME280;49820;33.966;73.390;2023-01-10T09:01:15;79060.38;;;13.04;46.38
63665;BME280;49820;33.966;73.390;2023-01-10T09:03:44;79071.09;;;13.53;46.06
63665;BME280;49820;33.966;73.390;2023-01-10T09:06:13;79078.06;;;14.14;43.10
63665;BME280;49820;33.966;73.390;2023-01-10T09:08:42;79059.22;;;14.81;41.84
63665;BME280;49820;33.966;73.390;2023-01-10T09:11:11;79058.56;;;14.80;39.58
63665;BME280;49820;33.966;73.390;2023-01-10T09:13:40;79042.16;;;14.88;39.22
63665;BME280;49820;33.966;73.390;2023-01-10T09:16:09;79044.81;;;15.49;38.04
63665;BME280;49820;33.966;73.390;2023-01-10T09:18:38;79045.06;;;16.18;36.60
63665;BME280;49820;33.966;73.390;2023-01-10T09:21:07;79027.06;;;16.31;37.76
63665;BME280;49820;33.966;73.390;2023-01-10T09:23:36;79020.44;;;16.28;35.54
63665;BME280;49820;33.966;73.390;2023-01-10T09:26:07;79043.84;;;15.58;37.14
63665;BME280;49820;33.966;73.390;2023-01-10T09:28:36;79028.59;;;15.51;36.96
63665;BME280;49820;33.966;73.390;2023-01-10T09:31:08;79010.31;;;15.35;35.84
63665;BME280;49820;33.966;73.390;2023-01-10T09:33:39;79005.53;;;14.98;36.85
63665;BME280;49820;33.966;73.390;2023-01-10T09:36:14;79011.47;;;14.81;37.84
63665;BME280;49820;33.966;73.390;2023-01-10T09:38:43;79021.66;;;15.77;37.33
63665;BME280;49820;33.966;73.390;2023-01-10T09:44:14;78998.31;;;15.50;36.54
63665;BME280;49820;33.966;73.390;2023-01-10T09:50:17;79008.56;;;13.09;39.31
63665;BME280;49820;33.966;73.390;2023-01-10T09:52:55;78985.13;;;12.33;41.33
63665;BME280;49820;33.966;73.390;2023-01-10T09:55:30;78972.25;;;11.86;42.20
63665;BME280;49820;33.966;73.390;2023-01-10T09:58:04;78973.97;;;12.49;41.81
63665;BME280;49820;33.966;73.390;2023-01-10T10:00:56;78956.03;;;12.93;39.90
63665;BME280;49820;33.966;73.390;2023-01-10T10:03:45;78970.72;;;13.21;41.02
63665;BME280;49820;33.966;73.390;2023-01-10T10:06:17;78952.25;;;13.09;40.40
63665;BME280;49820;33.966;73.390;2023-01-10T10:08:47;78966.72;;;12.95;41.40
63665;BME280;49820;33.966;73.390;2023-01-10T10:11:33;78981.75;;;13.57;38.89
63665;BME280;49820;33.966;73.390;2023-01-10T10:14:15;78982.25;;;12.66;39.33
63665;BME280;49820;33.966;73.390;2023-01-10T10:19:51;78996.88;;;11.62;42.49
63665;BME280;49820;33.966;73.390;2023-01-10T10:25:53;79000.78;;;11.67;43.50
63665;BME280;49820;33.966;73.390;2023-01-10T10:29:01;78997.75;;;12.10;42.91
63665;BME280;49820;33.966;73.390;2023-01-10T10:34:19;78991.91;;;12.03;42.63
63665;BME280;49820;33.966;73.390;2023-01-10T10:39:36;78983.84;;;11.19;44.29
63665;BME280;49820;33.966;73.390;2023-01-10T10:42:11;78953.81;;;10.85;42.69
63665;BME280;49820;33.966;73.390;2023-01-10T10:47:16;78985.78;;;10.56;45.05
63665;BME280;49820;33.966;73.390;2023-01-10T10:49:57;78971.03;;;10.59;44.58
63665;BME280;49820;33.966;73.390;2023-01-10T10:52:34;78965.72;;;11.21;43.61
63665;BME280;49820;33.966;73.390;2023-01-10T10:55:06;78957.50;;;11.29;42.86
63665;BME280;49820;33.966;73.390;2023-01-10T10:57:37;78956.50;;;11.14;42.33
63665;BME280;49820;33.966;73.390;2023-01-10T11:00:23;78947.56;;;10.95;42.73
63665;BME280;49820;33.966;73.390;2023-01-10T11:03:30;78931.81;;;10.17;44.84
63665;BME280;49820;33.966;73.390;2023-01-10T11:05:52;78938.56;;;9.77;46.16
63665;BME280;49820;33.966;73.390;2023-01-10T11:08:23;78955.72;;;9.49;47.34
63665;BME280;49820;33.966;73.390;2023-01-10T11:10:57;78952.06;;;9.30;47.06
63665;BME280;49820;33.966;73.390;2023-01-10T11:16:06;78959.91;;;8.99;47.76
63665;BME280;49820;33.966;73.390;2023-01-10T11:18:35;78954.88;;;8.78;48.42
63665;BME280;49820;33.966;73.390;2023-01-10T11:21:11;78957.75;;;8.62;49.18
63665;BME280;49820;33.966;73.390;2023-01-10T11:23:55;78957.44;;;8.39;49.41
63665;BME280;49820;33.966;73.390;2023-01-10T11:26:45;78974.75;;;8.38;50.92
63665;BME280;49820;33.966;73.390;2023-01-10T11:29:50;78964.19;;;8.28;50.93
63665;BME280;49820;33.966;73.390;2023-01-10T11:32:26;78936.16;;;7.86;50.56
63665;BME280;49820;33.966;73.390;2023-01-10T11:35:00;78963.34;;;7.91;51.51
63665;BME280;49820;33.966;73.390;2023-01-10T11:37:33;78953.00;;;7.66;51.85
63665;BME280;49820;33.966;73.390;2023-01-10T11:40:24;78953.03;;;7.62;52.06
63665;BME280;49820;33.966;73.390;2023-01-10T11:42:55;78951.72;;;7.61;52.81
63665;BME280;49820;33.966;73.390;2023-01-10T11:45:34;78948.44;;;7.59;52.85
63665;BME280;49820;33.966;73.390;2023-01-10T11:48:20;78940.03;;;7.36;52.73
63665;BME280;49820;33.966;73.390;2023-01-10T11:53:46;78925.78;;;7.03;52.91
63665;BME280;49820;33.966;73.390;2023-01-10T11:56:30;78937.38;;;6.67;54.66
63665;BME280;49820;33.966;73.390;2023-01-10T11:59:15;78946.19;;;6.45;55.06
63665;BME280;49820;33.966;73.390;2023-01-10T12:04:28;78951.75;;;6.12;55.60
63665;BME280;49820;33.966;73.390;2023-01-10T12:07:05;78930.72;;;5.76;56.14
63665;BME280;49820;33.966;73.390;2023-01-10T12:09:53;78936.00;;;5.78;56.59
63665;BME280;49820;33.966;73.390;2023-01-10T12:17:49;78916.34;;;5.43;57.31
63665;BME280;49820;33.966;73.390;2023-01-10T12:20:18;78899.25;;;5.17;57.66
63665;BME280;49820;33.966;73.390;2023-01-10T12:22:59;78905.91;;;5.10;58.54
63665;BME280;49820;33.966;73.390;2023-01-10T12:28:03;78914.56;;;4.92;59.22
63665;BME280;49820;33.966;73.390;2023-01-10T12:30:39;78911.94;;;4.88;59.00
63665;BME280;49820;33.966;73.390;2023-01-10T12:33:22;78913.97;;;4.78;59.97
63665;BME280;49820;33.966;73.390;2023-01-10T12:36:19;78914.63;;;4.76;60.00
63665;BME280;49820;33.966;73.390;2023-01-10T12:44:40;78915.31;;;4.65;60.36
63665;BME280;49820;33.966;73.390;2023-01-10T12:50:21;78900.13;;;4.55;60.89
63665;BME280;49820;33.966;73.390;2023-01-10T12:55:57;78919.94;;;4.68;60.57
63665;BME280;49820;33.966;73.390;2023-01-10T13:01:40;78912.66;;;4.67;60.64
63665;BME280;49820;33.966;73.390;2023-01-10T13:04:17;78861.19;;;4.23;61.07
63665;BME280;49820;33.966;73.390;2023-01-10T13:06:50;78909.38;;;4.60;60.52
63665;BME280;49820;33.966;73.390;2023-01-10T13:09:24;78907.41;;;4.56;60.30
63665;BME280;49820;33.966;73.390;2023-01-10T13:12:18;78919.31;;;4.59;60.03
63665;BME280;49820;33.966;73.390;2023-01-10T13:15:03;78932.53;;;4.57;59.43
63665;BME280;49820;33.966;73.390;2023-01-10T13:22:48;78899.53;;;4.26;60.21
63665;BME280;49820;33.966;73.390;2023-01-10T13:28:04;78937.84;;;4.39;60.57
63665;BME280;49820;33.966;73.390;2023-01-10T13:30:37;78921.34;;;4.22;60.66
63665;BME280;49820;33.966;73.390;2023-01-10T13:33:21;78929.28;;;4.29;60.99
63665;BME280;49820;33.966;73.390;2023-01-10T13:35:52;78914.06;;;4.23;60.75
63665;BME280;49820;33.966;73.390;2023-01-10T13:41:08;78916.72;;;4.17;60.84
63665;BME280;49820;33.966;73.390;2023-01-10T13:44:10;78932.56;;;4.33;61.30
63665;BME280;49820;33.966;73.390;2023-01-10T13:46:47;78912.06;;;4.32;61.34
63665;BME280;49820;33.966;73.390;2023-01-10T13:49:24;78937.81;;;4.59;61.09
63665;BME280;49820;33.966;73.390;2023-01-10T13:52:19;78926.56;;;4.57;61.48
63665;BME280;49820;33.966;73.390;2023-01-10T13:54:57;78926.59;;;4.41;61.48
63665;BME280;49820;33.966;73.390;2023-01-10T14:03:56;78947.75;;;4.47;61.97
63665;BME280;49820;33.966;73.390;2023-01-10T14:17:09;78923.97;;;4.41;61.84
63665;BME280;49820;33.966;73.390;2023-01-10T14:19:44;78907.47;;;4.26;62.27
63665;BME280;49820;33.966;73.390;2023-01-10T14:22:36;78921.97;;;4.41;61.17
63665;BME280;49820;33.966;73.390;2023-01-10T14:25:17;78930.53;;;4.56;61.39
63665;BME280;49820;33.966;73.390;2023-01-10T14:27:50;78941.78;;;4.58;61.42
63665;BME280;49820;33.966;73.390;2023-01-10T14:30:33;78919.31;;;4.49;61.36
63665;BME280;49820;33.966;73.390;2023-01-10T14:33:17;78929.19;;;4.63;61.88
63665;BME280;49820;33.966;73.390;2023-01-10T14:35:55;78935.81;;;4.64;62.08
63665;BME280;49820;33.966;73.390;2023-01-10T14:38:28;78947.06;;;4.63;61.19
63665;BME280;49820;33.966;73.390;2023-01-10T14:41:04;78958.31;;;4.59;61.24
63665;BME280;49820;33.966;73.390;2023-01-10T14:43:58;78966.28;;;4.47;60.49
63665;BME280;49820;33.966;73.390;2023-01-10T14:49:30;78967.59;;;4.62;61.56
63665;BME280;49820;33.966;73.390;2023-01-10T14:52:19;78959.03;;;4.45;61.89
63665;BME280;49820;33.966;73.390;2023-01-10T14:55:10;78964.94;;;4.48;61.69
63665;BME280;49820;33.966;73.390;2023-01-10T14:57:39;78980.16;;;4.53;63.10
63665;BME280;49820;33.966;73.390;2023-01-10T15:00:13;78977.50;;;4.49;62.42
63665;BME280;49820;33.966;73.390;2023-01-10T15:02:45;78976.84;;;4.49;62.30
63665;BME280;49820;33.966;73.390;2023-01-10T15:05:24;78933.91;;;4.18;63.29
63665;BME280;49820;33.966;73.390;2023-01-10T15:07:55;78944.50;;;4.18;63.19
63665;BME280;49820;33.966;73.390;2023-01-10T15:10:43;78968.94;;;4.27;62.95
63665;BME280;49820;33.966;73.390;2023-01-10T15:13:34;78962.34;;;4.13;62.05
63665;BME280;49820;33.966;73.390;2023-01-10T15:16:05;78962.34;;;4.11;62.90
63665;BME280;49820;33.966;73.390;2023-01-10T15:18:44;78987.47;;;4.20;62.96
63665;BME280;49820;33.966;73.390;2023-01-10T15:21:16;78963.00;;;4.04;63.92
63665;BME280;49820;33.966;73.390;2023-01-10T15:24:35;78986.81;;;4.20;63.41
63665;BME280;49820;33.966;73.390;2023-01-10T15:27:13;78992.75;;;4.27;63.09
63665;BME280;49820;33.966;73.390;2023-01-10T15:29:43;78970.28;;;3.97;63.99
63665;BME280;49820;33.966;73.390;2023-01-10T15:32:34;78951.75;;;3.83;63.82
63665;BME280;49820;33.966;73.390;2023-01-10T15:35:07;78988.13;;;4.17;63.17
63665;BME280;49820;33.966;73.390;2023-01-10T15:38:06;78969.63;;;4.11;63.65
63665;BME280;49820;33.966;73.390;2023-01-10T15:40:36;78975.56;;;4.07;64.48
63665;BME280;49820;33.966;73.390;2023-01-10T15:43:12;78993.41;;;4.17;65.09
63665;BME280;49820;33.966;73.390;2023-01-10T15:45:53;78987.44;;;4.00;64.29
63665;BME280;49820;33.966;73.390;2023-01-10T15:48:40;78992.09;;;4.04;64.32
63665;BME280;49820;33.966;73.390;2023-01-10T15:51:38;78994.06;;;4.01;65.00
63665;BME280;49820;33.966;73.390;2023-01-10T15:56:55;78943.16;;;3.58;65.45
63665;BME280;49820;33.966;73.390;2023-01-10T15:59:34;78998.03;;;3.94;65.81
63665;BME280;49820;33.966;73.390;2023-01-10T16:04:58;78982.16;;;3.90;65.99
63665;BME280;49820;33.966;73.390;2023-01-10T16:07:30;78999.34;;;3.99;67.13
63665;BME280;49820;33.966;73.390;2023-01-10T16:10:06;78959.69;;;3.81;66.19
63665;BME280;49820;33.966;73.390;2023-01-10T16:12:40;79003.97;;;4.17;67.20
63665;BME280;49820;33.966;73.390;2023-01-10T16:15:33;78984.16;;;4.16;67.56
63665;BME280;49820;33.966;73.390;2023-01-10T16:18:03;79010.59;;;4.28;67.23
63665;BME280;49820;33.966;73.390;2023-01-10T16:20:54;79003.31;;;4.25;68.11
63665;BME280;49820;33.966;73.390;2023-01-10T16:23:31;78982.16;;;4.08;67.53
63665;BME280;49820;33.966;73.390;2023-01-10T16:26:05;79003.31;;;4.31;66.11
63665;BME280;49820;33.966;73.390;2023-01-10T16:28:36;78988.13;;;4.25;64.99
63665;BME280;49820;33.966;73.390;2023-01-10T16:31:08;78994.06;;;4.30;63.45
63665;BME280;49820;33.966;73.390;2023-01-10T16:33:38;78984.13;;;4.30;62.54
63665;BME280;49820;33.966;73.390;2023-01-10T16:36:14;78993.41;;;4.45;61.66
63665;BME280;49820;33.966;73.390;2023-01-10T16:38:44;78982.16;;;4.39;61.77
63665;BME280;49820;33.966;73.390;2023-01-10T16:41:13;78973.56;;;4.28;61.21
63665;BME280;49820;33.966;73.390;2023-01-10T16:44:01;78990.75;;;4.43;60.86
63665;BME280;49820;33.966;73.390;2023-01-10T16:46:29;78985.47;;;4.25;61.50
63665;BME280;49820;33.966;73.390;2023-01-10T16:48:59;78958.38;;;3.98;61.56
63665;BME280;49820;33.966;73.390;2023-01-10T16:51:29;78947.13;;;3.92;61.25
63665;BME280;49820;33.966;73.390;2023-01-10T16:54:00;78992.72;;;4.31;61.54
63665;BME280;49820;33.966;73.390;2023-01-10T16:56:29;78982.16;;;4.27;61.63
63665;BME280;49820;33.966;73.390;2023-01-10T16:58:59;78969.59;;;4.17;61.91
63665;BME280;49820;33.966;73.390;2023-01-10T17:01:42;78972.91;;;4.23;61.92
63665;BME280;49820;33.966;73.390;2023-01-10T17:04:18;78973.59;;;4.12;61.56
63665;BME280;49820;33.966;73.390;2023-01-10T17:06:49;78968.94;;;4.06;61.83
63665;BME280;49820;33.966;73.390;2023-01-10T17:09:23;78953.09;;;3.98;61.14
63665;BME280;49820;33.966;73.390;2023-01-10T17:11:55;78959.03;;;3.97;60.53
63665;BME280;49820;33.966;73.390;2023-01-10T17:14:34;78978.19;;;4.17;60.56
63665;BME280;49820;33.966;73.390;2023-01-10T17:17:03;78966.97;;;3.99;60.28
63665;BME280;49820;33.966;73.390;2023-01-10T17:19:32;78966.97;;;4.15;59.99
63665;BME280;49820;33.966;73.390;2023-01-10T17:22:01;78957.06;;;4.01;61.36
63665;BME280;49820;33.966;73.390;2023-01-10T17:24:30;78933.91;;;3.98;61.20
63665;BME280;49820;33.966;73.390;2023-01-10T17:26:59;78936.56;;;3.96;61.63
63665;BME280;49820;33.966;73.390;2023-01-10T17:29:29;78947.81;;;4.00;62.82
63665;BME280;49820;33.966;73.390;2023-01-10T17:31:59;78944.50;;;3.90;64.90
63665;BME280;49820;33.966;73.390;2023-01-10T17:34:27;78939.22;;;3.77;66.04
63665;BME280;49820;33.966;73.390;2023-01-10T17:36:59;78928.66;;;3.79;67.89
63665;BME280;49820;33.966;73.390;2023-01-10T17:39:27;78955.75;;;3.96;69.29
63665;BME280;49820;33.966;73.390;2023-01-10T17:41:56;78947.16;;;3.86;70.42
63665;BME280;49820;33.966;73.390;2023-01-10T17:44:25;78927.34;;;3.80;68.71
63665;BME280;49820;33.966;73.390;2023-01-10T17:46:54;78898.25;;;3.68;69.46
63665;BME280;49820;33.966;73.390;2023-01-10T17:49:24;78949.78;;;4.00;69.20
63665;BME280;49820;33.966;73.390;2023-01-10T17:51:53;78915.44;;;3.79;69.21
63665;BME280;49820;33.966;73.390;2023-01-10T17:54:22;78890.34;;;3.52;67.31
63665;BME280;49820;33.966;73.390;2023-01-10T17:56:51;78945.16;;;4.14;66.02
63665;BME280;49820;33.966;73.390;2023-01-10T17:59:21;78933.28;;;4.05;65.74
63665;BME280;49820;33.966;73.390;2023-01-10T18:01:50;78929.31;;;4.12;65.57
63665;BME280;49820;33.966;73.390;2023-01-10T18:04:19;78924.66;;;4.11;64.99
63665;BME280;49820;33.966;73.390;2023-01-10T18:06:48;78933.91;;;4.26;63.64
63665;BME280;49820;33.966;73.390;2023-01-10T18:09:19;78910.78;;;4.27;61.32
63665;BME280;49820;33.966;73.390;2023-01-10T18:11:48;78907.44;;;4.36;61.29
63665;BME280;49820;33.966;73.390;2023-01-10T18:14:17;78925.28;;;4.46;61.56
63665;BME280;49820;33.966;73.390;2023-01-10T18:17:10;78898.84;;;4.40;60.87
63665;BME280;49820;33.966;73.390;2023-01-10T18:19:39;78899.47;;;4.50;61.33
63665;BME280;49820;33.966;73.390;2023-01-10T18:22:09;78896.19;;;4.42;62.67
63665;BME280;49820;33.966;73.390;2023-01-10T18:24:57;78870.44;;;4.24;61.89
63665;BME280;49820;33.966;73.390;2023-01-10T18:27:26;78893.50;;;4.56;61.73
63665;BME280;49820;33.966;73.390;2023-01-10T18:29:55;78857.88;;;4.27;62.56
63665;BME280;49820;33.966;73.390;2023-01-10T18:32:24;78881.66;;;4.39;62.18
63665;BME280;49820;33.966;73.390;2023-01-10T18:34:53;78889.56;;;4.41;60.58
63665;BME280;49820;33.966;73.390;2023-01-10T18:37:22;78897.53;;;4.45;60.22